createdAt,value
2022-08-07T00:02:35.350Z,72.02
2022-08-07T00:04:05.958Z,71.82
2022-08-07T00:06:33.947Z,71.69
2022-08-07T00:09:16.450Z,72.30
2022-08-07T00:11:54.187Z,71.95
2022-08-07T00:14:30.034Z,72.01
2022-08-07T00:17:01.637Z,71.48
2022-08-07T00:19:59.969Z,72.37
2022-08-07T00:22:24.679Z,71.77
2022-08-07T00:25:15.837Z,71.02
2022-08-07T00:27:52.255Z,70.54
2022-08-07T00:30:27.670Z,70.72
2022-08-07T00:32:59.887Z,69.81
2022-08-07T00:35:29.696Z,70.48
2022-08-07T00:37:57.350Z,68.74
2022-08-07T00:40:36.188Z,70.01
2022-08-07T00:43:09.892Z,71.03
2022-08-07T00:45:38.531Z,70.83
2022-08-07T00:48:08.846Z,71.61
2022-08-07T00:50:46.190Z,70.51
2022-08-07T00:53:20.351Z,70.49
2022-08-07T00:56:02.502Z,71.08
2022-08-07T00:58:30.423Z,71.58
2022-08-07T01:00:57.166Z,70.38
2022-08-07T01:03:54.736Z,69.79
2022-08-07T01:06:10.820Z,69.76
2022-08-07T01:08:43.897Z,69.55
2022-08-07T01:12:04.821Z,70.82
2022-08-07T01:14:09.151Z,70.73
2022-08-07T01:16:36.822Z,71.08
2022-08-07T01:19:10.898Z,70.48
2022-08-07T01:21:48.189Z,69.88
2022-08-07T01:24:21.148Z,70.63
2022-08-07T01:26:52.059Z,71.91
2022-08-07T01:29:23.245Z,72.37
2022-08-07T01:31:52.619Z,73.48
2022-08-07T01:34:20.422Z,72.59
2022-08-07T01:36:58.960Z,73.49
2022-08-07T01:39:40.886Z,72.58
2022-08-07T01:42:38.619Z,73.21
2022-08-07T01:45:17.940Z,75.30
2022-08-07T01:48:20.198Z,74.62
2022-08-07T01:50:38.217Z,73.97
2022-08-07T01:53:11.782Z,73.36
2022-08-07T01:55:59.775Z,72.71
2022-08-07T01:58:33.363Z,73.26
2022-08-07T02:01:10.012Z,73.19
2022-08-07T02:04:03.577Z,71.46
2022-08-07T02:06:34.383Z,71.63
2022-08-07T02:09:09.250Z,71.36
2022-08-07T02:12:02.771Z,71.63
2022-08-07T02:14:40.195Z,72.10
2022-08-07T02:17:16.597Z,72.25
2022-08-07T02:20:07.093Z,71.57
2022-08-07T02:22:41.092Z,72.53
2022-08-07T02:25:17.063Z,73.04
2022-08-07T02:27:54.426Z,74.54
2022-08-07T02:30:23.915Z,76.20
2022-08-07T02:33:00.705Z,77.69
2022-08-07T02:36:29.246Z,77.94
2022-08-07T02:38:31.585Z,80.97
2022-08-07T02:41:03.643Z,80.52
2022-08-07T02:43:35.327Z,81.52
2022-08-07T02:46:07.420Z,82.89
2022-08-07T02:48:35.836Z,82.18
2022-08-07T02:51:14.319Z,83.20
2022-08-07T02:53:57.973Z,82.87
2022-08-07T02:56:29.720Z,84.89
2022-08-07T02:59:02.131Z,84.56
2022-08-07T03:01:36.106Z,84.16
2022-08-07T03:04:12.683Z,82.50
2022-08-07T03:06:44.691Z,82.70
2022-08-07T03:09:14.618Z,82.69
2022-08-07T03:12:03.731Z,79.36
2022-08-07T03:14:36.203Z,78.37
2022-08-07T03:17:04.976Z,76.85
2022-08-07T03:19:37.285Z,77.33
2022-08-07T03:22:07.087Z,76.34
2022-08-07T03:24:36.686Z,75.06
2022-08-07T03:27:09.091Z,74.71
2022-08-07T03:29:51.413Z,76.31
2022-08-07T03:32:34.190Z,76.68
2022-08-07T03:35:17.346Z,77.68
2022-08-07T03:37:54.172Z,76.38
2022-08-07T03:40:31.227Z,75.58
2022-08-07T03:43:10.132Z,76.84
2022-08-07T03:45:43.700Z,75.29
2022-08-07T03:48:16.653Z,73.03
2022-08-07T03:50:52.065Z,74.84
2022-08-07T03:54:00.573Z,75.65
2022-08-07T03:56:19.147Z,76.22
2022-08-07T03:59:09.858Z,75.04
2022-08-07T04:01:45.769Z,74.47
2022-08-07T04:04:18.577Z,74.41
2022-08-07T04:06:50.825Z,74.50
2022-08-07T04:09:23.293Z,74.25
2022-08-07T04:12:23.336Z,73.99
2022-08-07T04:14:43.835Z,72.76
2022-08-07T04:17:21.110Z,72.50
2022-08-07T04:19:51.996Z,72.50
2022-08-07T04:22:28.523Z,72.91
2022-08-07T04:25:02.060Z,72.38
2022-08-07T04:27:35.544Z,72.46
2022-08-07T04:30:35.562Z,72.00
2022-08-07T04:33:07.465Z,71.03
2022-08-07T04:35:39.718Z,70.73
2022-08-07T04:38:15.423Z,70.31
2022-08-07T04:40:51.859Z,71.60
2022-08-07T04:44:10.241Z,70.93
2022-08-07T04:46:42.797Z,69.73
2022-08-07T04:49:37.498Z,68.36
2022-08-07T04:52:14.677Z,67.69
2022-08-07T04:54:59.543Z,68.39
2022-08-07T04:58:10.607Z,68.19
2022-08-07T05:00:43.655Z,66.25
2022-08-07T05:04:06.910Z,66.07
2022-08-07T05:06:53.421Z,63.56
2022-08-07T05:09:45.608Z,59.88
2022-08-07T05:12:27.169Z,59.36
2022-08-07T05:15:21.708Z,61.85
2022-08-07T05:18:00.415Z,63.67
2022-08-07T05:20:50.269Z,63.07
2022-08-07T05:23:50.075Z,63.74
2022-08-07T05:26:24.032Z,65.39
2022-08-07T05:29:04.067Z,65.25
2022-08-07T05:31:38.383Z,66.98
2022-08-07T05:34:12.114Z,67.28
2022-08-07T05:36:44.603Z,67.42
2022-08-07T05:40:13.783Z,68.71
2022-08-07T05:42:34.508Z,66.85
2022-08-07T05:45:14.768Z,66.44
2022-08-07T05:48:01.617Z,67.01
2022-08-07T05:50:34.410Z,65.72
2022-08-07T05:53:03.319Z,64.55
2022-08-07T05:56:01.915Z,62.90
2022-08-07T05:58:36.323Z,65.94
2022-08-07T06:01:11.362Z,64.48
2022-08-07T06:03:56.953Z,64.11
2022-08-07T06:06:29.843Z,65.40
2022-08-07T06:09:04.753Z,64.70
2022-08-07T06:11:34.830Z,64.21
2022-08-07T06:14:12.999Z,64.79
2022-08-07T06:16:56.216Z,65.83
2022-08-07T06:19:49.954Z,66.96
2022-08-07T06:22:27.316Z,65.13
2022-08-07T06:25:05.207Z,63.90
2022-08-07T06:28:00.350Z,63.20
2022-08-07T06:30:24.124Z,62.01
2022-08-07T06:32:58.998Z,64.46
2022-08-07T06:35:39.176Z,61.96
2022-08-07T06:38:20.572Z,59.52
2022-08-07T06:40:53.233Z,57.11
2022-08-07T06:43:24.536Z,56.48
2022-08-07T06:46:13.489Z,55.20
2022-08-07T06:48:42.219Z,53.57
2022-08-07T06:51:31.032Z,52.26
2022-08-07T06:55:28.822Z,53.02
2022-08-07T06:56:53.786Z,51.91
2022-08-07T07:00:14.547Z,52.25
2022-08-07T07:02:53.293Z,52.30
2022-08-07T07:05:12.712Z,52.62
2022-08-07T07:07:59.816Z,51.85
2022-08-07T07:10:33.313Z,54.74
2022-08-07T07:13:16.288Z,54.01
2022-08-07T07:16:07.700Z,51.59
2022-08-07T07:18:56.167Z,53.61
2022-08-07T07:21:40.478Z,53.65
2022-08-07T07:24:16.766Z,50.60
2022-08-07T07:26:52.137Z,53.43
2022-08-07T07:29:39.031Z,52.60
2022-08-07T07:32:12.782Z,47.42
2022-08-07T07:34:48.614Z,45.40
2022-08-07T07:37:43.932Z,47.59
2022-08-07T07:40:10.249Z,46.32
2022-08-07T07:42:47.019Z,45.41
2022-08-07T07:45:24.518Z,46.35
2022-08-07T07:48:11.232Z,45.40
2022-08-07T07:50:40.057Z,43.82
2022-08-07T07:53:13.519Z,45.51
2022-08-07T07:55:54.989Z,47.24
2022-08-07T07:58:31.347Z,43.43
2022-08-07T08:02:01.888Z,41.86
2022-08-07T08:04:10.873Z,40.91
2022-08-07T08:06:50.889Z,41.62
2022-08-07T08:09:23.837Z,42.13
2022-08-07T08:12:02.035Z,42.27
2022-08-07T08:14:36.100Z,43.26
2022-08-07T08:17:55.433Z,44.50
2022-08-07T08:20:18.853Z,41.33
2022-08-07T08:23:08.442Z,40.65
2022-08-07T08:25:58.222Z,42.27
2022-08-07T08:28:38.441Z,41.92
2022-08-07T08:31:15.759Z,43.20
2022-08-07T08:33:48.964Z,42.78
2022-08-07T08:36:25.601Z,38.61
2022-08-07T08:39:01.733Z,38.08
2022-08-07T08:41:58.298Z,39.77
2022-08-07T08:44:29.635Z,42.91
2022-08-07T08:47:17.275Z,42.19
2022-08-07T08:50:35.304Z,43.17
2022-08-07T08:53:14.090Z,39.28
2022-08-07T08:55:55.581Z,38.66
2022-08-07T08:58:40.261Z,37.69
2022-08-07T09:01:18.354Z,38.67
2022-08-07T09:03:56.712Z,38.99
2022-08-07T09:06:37.489Z,40.12
2022-08-07T09:09:57.210Z,36.87
2022-08-07T09:12:53.144Z,36.31
2022-08-07T09:16:25.842Z,36.94
2022-08-07T09:18:58.507Z,36.87
2022-08-07T09:21:57.960Z,42.83
2022-08-07T09:24:55.124Z,42.28
2022-08-07T09:28:00.671Z,43.70
2022-08-07T09:30:58.430Z,41.03
2022-08-07T09:33:57.237Z,38.86
2022-08-07T09:36:37.178Z,38.61
2022-08-07T09:39:52.651Z,38.31
2022-08-07T09:42:32.966Z,36.79
2022-08-07T09:47:25.884Z,37.94
2022-08-07T09:48:50.159Z,35.42
2022-08-07T09:52:15.407Z,34.98
2022-08-07T09:54:27.069Z,31.86
2022-08-07T09:57:07.249Z,31.13
2022-08-07T10:00:05.457Z,31.27
2022-08-07T10:02:53.652Z,34.33
2022-08-07T10:06:00.067Z,32.99
2022-08-07T10:08:58.392Z,30.63
2022-08-07T10:12:03.094Z,31.82
2022-08-07T10:14:55.012Z,33.40
2022-08-07T10:18:01.596Z,36.19
2022-08-07T10:22:14.235Z,33.42
2022-08-07T10:24:49.176Z,34.46
2022-08-07T10:27:51.319Z,32.24
2022-08-07T10:30:24.949Z,31.04
2022-08-07T10:34:06.748Z,32.46
2022-08-07T10:36:36.070Z,34.72
2022-08-07T10:39:41.910Z,31.16
2022-08-07T10:42:21.010Z,32.80
2022-08-07T10:45:09.837Z,30.51
2022-08-07T10:47:53.689Z,27.67
2022-08-07T10:50:34.102Z,27.35
2022-08-07T10:53:09.047Z,26.22
2022-08-07T10:55:46.326Z,26.20
2022-08-07T10:58:12.984Z,27.13
2022-08-07T11:01:11.352Z,25.91
2022-08-07T11:03:52.511Z,26.71
2022-08-07T11:06:32.146Z,29.49
2022-08-07T11:09:04.301Z,29.36
2022-08-07T11:12:01.338Z,30.29
2022-08-07T11:14:46.406Z,30.33
2022-08-07T11:17:42.746Z,31.71
2022-08-07T11:20:24.844Z,33.57
2022-08-07T11:23:01.638Z,31.82
2022-08-07T11:25:49.775Z,32.37
2022-08-07T11:28:41.242Z,32.42
2022-08-07T11:31:11.982Z,32.11
2022-08-07T11:33:54.137Z,32.30
2022-08-07T11:36:30.593Z,33.59
2022-08-07T11:39:09.583Z,33.70
2022-08-07T11:42:01.688Z,34.59
2022-08-07T11:44:52.633Z,35.19
2022-08-07T11:47:56.034Z,36.76
2022-08-07T11:50:58.603Z,34.62
2022-08-07T11:53:37.278Z,34.10
2022-08-07T11:56:28.001Z,33.18
2022-08-07T12:00:12.128Z,33.63
2022-08-07T12:02:53.841Z,33.22
2022-08-07T12:05:47.328Z,34.81
2022-08-07T12:08:37.247Z,35.40
2022-08-07T12:11:21.271Z,34.24
2022-08-07T12:14:08.485Z,33.58
2022-08-07T12:16:42.536Z,33.50
2022-08-07T12:19:35.557Z,34.36
2022-08-07T12:22:56.463Z,35.67
2022-08-07T12:26:03.022Z,37.61
2022-08-07T12:28:57.440Z,35.60
2022-08-07T12:31:53.176Z,36.06
2022-08-07T12:34:34.696Z,35.97
2022-08-07T12:37:08.332Z,36.91
2022-08-07T12:39:51.320Z,36.42
2022-08-07T12:42:27.748Z,36.04
2022-08-07T12:44:58.037Z,37.22
2022-08-07T12:47:37.276Z,36.60
2022-08-07T12:50:34.027Z,36.68
2022-08-07T12:53:18.053Z,36.43
2022-08-07T12:56:09.239Z,37.94
2022-08-07T12:58:42.927Z,39.46
2022-08-07T13:02:03.202Z,38.88
2022-08-07T13:04:36.583Z,38.50
2022-08-07T13:08:13.494Z,38.18
2022-08-07T13:10:56.576Z,37.31
2022-08-07T13:13:48.698Z,37.71
2022-08-07T13:16:36.553Z,38.68
2022-08-07T13:19:50.695Z,38.05
2022-08-07T13:22:31.685Z,40.00
2022-08-07T13:25:00.467Z,40.68
2022-08-07T13:28:05.716Z,39.89
2022-08-07T13:30:39.864Z,40.71
2022-08-07T13:33:46.075Z,40.90
2022-08-07T13:36:05.964Z,40.85
2022-08-07T13:38:42.895Z,41.18
2022-08-07T13:41:35.661Z,40.23
2022-08-07T13:44:10.691Z,40.11
2022-08-07T13:46:49.331Z,40.64
2022-08-07T13:50:34.376Z,39.90
2022-08-07T13:52:31.697Z,40.99
2022-08-07T13:54:57.516Z,40.08
2022-08-07T13:57:38.192Z,39.18
2022-08-07T14:00:08.575Z,38.92
2022-08-07T14:02:56.516Z,39.52
2022-08-07T14:05:24.930Z,41.16
2022-08-07T14:08:06.649Z,39.85
2022-08-07T14:10:42.376Z,40.69
2022-08-07T14:13:16.558Z,41.89
2022-08-07T14:15:51.969Z,41.53
2022-08-07T14:18:44.688Z,42.04
2022-08-07T14:22:41.208Z,42.81
2022-08-07T14:24:28.060Z,41.17
2022-08-07T14:26:57.046Z,40.97
2022-08-07T14:30:06.629Z,40.57
2022-08-07T14:32:19.423Z,42.35
2022-08-07T14:34:48.220Z,42.32
2022-08-07T14:37:32.976Z,41.96
2022-08-07T14:40:16.128Z,41.81
2022-08-07T14:43:55.204Z,41.94
2022-08-07T14:45:51.386Z,41.86
2022-08-07T14:48:27.332Z,41.94
2022-08-07T14:50:57.864Z,42.66
2022-08-07T14:54:03.606Z,42.16
2022-08-07T14:56:29.597Z,42.46
2022-08-07T14:59:02.129Z,43.24
2022-08-07T15:01:42.927Z,41.92
2022-08-07T15:04:21.765Z,42.32
2022-08-07T15:06:52.755Z,42.35
2022-08-07T15:09:59.978Z,42.06
2022-08-07T15:12:36.636Z,42.60
2022-08-07T15:15:17.413Z,41.31
2022-08-07T15:17:57.464Z,42.75
2022-08-07T15:26:20.734Z,42.81
2022-08-07T15:28:58.456Z,43.51
2022-08-07T15:32:01.274Z,43.56
2022-08-07T15:34:17.197Z,43.36
2022-08-07T15:37:03.414Z,43.61
2022-08-07T15:42:43.603Z,43.59
2022-08-07T15:48:30.759Z,43.06
2022-08-07T15:51:07.824Z,43.97
2022-08-07T15:53:52.779Z,44.23
2022-08-07T15:56:24.664Z,43.43
2022-08-07T15:58:59.918Z,43.77
2022-08-07T16:01:38.582Z,43.71
2022-08-07T16:04:15.628Z,43.17
2022-08-07T16:06:52.804Z,43.77
2022-08-07T16:09:42.091Z,44.43
2022-08-07T16:12:31.605Z,44.66
2022-08-07T16:14:59.123Z,45.24
2022-08-07T16:18:02.003Z,45.16
2022-08-07T16:20:55.117Z,45.27
2022-08-07T16:23:53.409Z,46.35
2022-08-07T16:26:30.445Z,47.09
2022-08-07T16:30:09.926Z,46.95
2022-08-07T16:32:34.568Z,47.04
2022-08-07T16:35:58.906Z,47.82
2022-08-07T16:39:01.153Z,48.58
2022-08-07T16:41:54.399Z,48.22
2022-08-07T16:45:15.050Z,47.79
2022-08-07T16:48:08.069Z,48.21
2022-08-07T16:51:07.401Z,48.58
2022-08-07T16:54:11.464Z,49.06
2022-08-07T16:57:15.377Z,48.48
2022-08-07T17:00:14.923Z,47.90
2022-08-07T17:03:07.806Z,45.33
2022-08-07T17:06:26.586Z,45.95
2022-08-07T17:09:10.962Z,43.66
2022-08-07T17:12:33.488Z,40.05
2022-08-07T17:15:16.001Z,38.76
2022-08-07T17:17:47.506Z,38.95
2022-08-07T17:20:37.809Z,38.93
2022-08-07T17:23:22.595Z,39.93
2022-08-07T17:26:23.618Z,39.43
2022-08-07T17:30:12.743Z,39.87
2022-08-07T17:32:30.423Z,39.85
2022-08-07T17:35:49.852Z,40.24
2022-08-07T17:38:08.392Z,41.05
2022-08-07T17:42:00.656Z,40.41
2022-08-07T17:44:10.458Z,39.54
2022-08-07T17:46:52.421Z,40.67
2022-08-07T17:49:22.927Z,41.19
2022-08-07T17:52:00.278Z,41.39
2022-08-07T17:54:54.084Z,41.05
2022-08-07T17:58:01.466Z,41.39
2022-08-07T18:00:34.584Z,40.81
2022-08-07T18:04:04.628Z,40.51
2022-08-07T18:06:33.355Z,41.32
2022-08-07T18:09:06.478Z,41.99
2022-08-07T18:12:17.689Z,41.98
2022-08-07T18:15:02.777Z,41.04
2022-08-07T18:18:46.130Z,42.03
2022-08-07T18:21:08.886Z,42.14
2022-08-07T18:23:43.194Z,41.78
2022-08-07T18:26:18.876Z,41.94
2022-08-07T18:29:02.767Z,43.12
2022-08-07T18:31:52.412Z,42.14
2022-08-07T18:34:53.584Z,42.52
2022-08-07T18:38:59.263Z,42.13
2022-08-07T18:41:16.854Z,42.04
2022-08-07T18:44:01.876Z,42.61
2022-08-07T18:46:43.169Z,43.49
2022-08-07T18:50:32.378Z,43.68
2022-08-07T18:52:52.914Z,43.57
2022-08-07T18:55:42.541Z,43.09
2022-08-07T18:58:36.796Z,44.05
2022-08-07T19:02:19.070Z,44.00
2022-08-07T19:04:28.184Z,43.66
2022-08-07T19:07:08.483Z,44.47
2022-08-07T19:10:18.466Z,44.77
2022-08-07T19:13:21.486Z,44.64
2022-08-07T19:17:01.527Z,45.16
2022-08-07T19:19:32.093Z,45.19
2022-08-07T19:22:30.830Z,45.48
2022-08-07T19:24:58.476Z,45.51
2022-08-07T19:28:57.982Z,46.63
2022-08-07T19:31:04.298Z,46.15
2022-08-07T19:33:15.841Z,45.86
2022-08-07T19:35:46.824Z,46.15
2022-08-07T19:38:17.816Z,46.76
2022-08-07T19:40:49.478Z,46.83
2022-08-07T19:43:21.936Z,46.31
2022-08-07T19:46:10.736Z,46.09
2022-08-07T19:48:53.514Z,47.45
2022-08-07T19:51:50.508Z,47.91
2022-08-07T19:54:35.067Z,47.77
2022-08-07T19:58:02.674Z,47.92
2022-08-07T19:59:54.183Z,48.15
2022-08-07T20:02:35.017Z,47.74
2022-08-07T20:05:08.994Z,48.11
2022-08-07T20:07:46.314Z,48.58
2022-08-07T20:10:51.742Z,48.64
2022-08-07T20:13:31.865Z,50.45
2022-08-07T20:16:02.100Z,51.12
2022-08-07T20:18:33.005Z,52.33
2022-08-07T20:21:03.725Z,52.95
2022-08-07T20:23:53.917Z,53.13
2022-08-07T20:26:32.212Z,53.40
2022-08-07T20:29:46.753Z,52.65
2022-08-07T20:32:00.199Z,52.20
2022-08-07T20:34:49.408Z,52.11
2022-08-07T20:37:22.372Z,52.53
2022-08-07T20:40:02.584Z,53.11
2022-08-07T20:42:33.707Z,52.77
2022-08-07T20:45:04.580Z,53.44
2022-08-07T20:47:56.027Z,54.55
2022-08-07T20:50:26.827Z,54.65
2022-08-07T20:52:53.935Z,54.47
2022-08-07T20:55:23.574Z,54.63
2022-08-07T20:58:04.164Z,54.92
2022-08-07T21:00:46.085Z,55.27
2022-08-07T21:03:16.863Z,54.71
2022-08-07T21:05:56.492Z,54.12
2022-08-07T21:08:37.521Z,54.09
2022-08-07T21:11:10.780Z,54.84
2022-08-07T21:13:57.876Z,55.25
2022-08-07T21:16:37.612Z,55.80
2022-08-07T21:19:15.908Z,55.28
2022-08-07T21:21:57.546Z,55.50
2022-08-07T21:24:47.922Z,56.42
2022-08-07T21:27:25.512Z,56.16
2022-08-07T21:30:09.802Z,56.09
2022-08-07T21:32:52.646Z,56.47
2022-08-07T21:35:34.488Z,56.11
2022-08-07T21:38:31.747Z,56.62
2022-08-07T21:41:38.315Z,56.77
2022-08-07T21:44:30.005Z,57.33
2022-08-07T21:47:07.528Z,57.70
2022-08-07T21:50:02.900Z,58.10
2022-08-07T21:53:07.709Z,57.77
2022-08-07T21:55:59.995Z,58.94
2022-08-07T21:58:40.158Z,59.23
2022-08-07T22:02:07.398Z,59.73
2022-08-07T22:04:35.267Z,60.81
2022-08-07T22:07:14.726Z,59.91
2022-08-07T22:09:54.168Z,60.09
2022-08-07T22:12:35.062Z,60.72
2022-08-07T22:16:38.517Z,60.49
2022-08-07T22:18:00.566Z,60.88
2022-08-07T22:20:49.908Z,59.77
2022-08-07T22:23:59.810Z,60.12
2022-08-07T22:26:29.383Z,60.42
2022-08-07T22:29:17.073Z,61.12
2022-08-07T22:32:30.525Z,61.25
2022-08-07T22:35:02.235Z,61.10
2022-08-07T22:38:03.090Z,60.31
2022-08-07T22:40:44.688Z,60.50
2022-08-07T22:43:18.173Z,59.88
2022-08-07T22:47:02.696Z,60.14
2022-08-07T22:49:19.251Z,60.67
2022-08-07T22:52:01.414Z,61.04
2022-08-07T22:54:40.133Z,61.20
2022-08-07T22:57:30.884Z,60.20
2022-08-07T23:00:21.586Z,61.55
2022-08-07T23:03:17.145Z,61.22
2022-08-07T23:06:16.600Z,61.56
2022-08-07T23:10:00.401Z,61.15
2022-08-07T23:12:06.289Z,63.65
2022-08-07T23:14:39.722Z,64.25
2022-08-07T23:17:30.776Z,63.83
2022-08-07T23:20:51.518Z,63.13
2022-08-07T23:24:07.100Z,63.88
2022-08-07T23:26:56.339Z,61.55
2022-08-07T23:29:43.621Z,60.80
2022-08-07T23:34:22.443Z,59.41
2022-08-07T23:36:00.766Z,58.90
2022-08-07T23:39:08.621Z,61.26
2022-08-07T23:42:04.638Z,62.04
2022-08-07T23:45:33.235Z,62.69
2022-08-07T23:48:27.765Z,62.14
2022-08-07T23:52:58.510Z,59.60
2022-08-07T23:54:44.150Z,59.28
2022-08-07T23:57:40.956Z,62.29
